sensor_id;sensor_type;location;lat;lon;timestamp;pressure;altitude;pressure_sealevel;temperature
71807;BMP280;59655;42.590;23.364;2022-07-23T00:01:20;91975.28;;;22.32
71807;BMP280;59655;42.590;23.364;2022-07-23T00:03:46;91984.59;;;22.29
71807;BMP280;59655;42.590;23.364;2022-07-23T00:06:11;91984.69;;;22.31
71807;BMP280;59655;42.590;23.364;2022-07-23T00:08:37;91977.91;;;22.30
71807;BMP280;59655;42.590;23.364;2022-07-23T00:11:02;91978.41;;;22.26
71807;BMP280;59655;42.590;23.364;2022-07-23T00:13:28;91976.09;;;22.20
71807;BMP280;59655;42.590;23.364;2022-07-23T00:15:53;91978.28;;;22.24
71807;BMP280;59655;42.590;23.364;2022-07-23T00:18:19;91977.53;;;22.21
71807;BMP280;59655;42.590;23.364;2022-07-23T00:20:44;91973.78;;;22.15
71807;BMP280;59655;42.590;23.364;2022-07-23T00:23:10;91978.53;;;22.14
71807;BMP280;59655;42.590;23.364;2022-07-23T00:25:35;91973.00;;;22.12
71807;BMP280;59655;42.590;23.364;2022-07-23T00:28:01;91981.22;;;22.14
71807;BMP280;59655;42.590;23.364;2022-07-23T00:30:27;91977.72;;;22.12
71807;BMP280;59655;42.590;23.364;2022-07-23T00:32:56;91971.69;;;22.13
71807;BMP280;59655;42.590;23.364;2022-07-23T00:35:25;91975.53;;;22.08
71807;BMP280;59655;42.590;23.364;2022-07-23T00:37:51;91973.31;;;22.05
71807;BMP280;59655;42.590;23.364;2022-07-23T00:40:17;91971.31;;;22.05
71807;BMP280;59655;42.590;23.364;2022-07-23T00:42:43;91972.72;;;22.06
71807;BMP280;59655;42.590;23.364;2022-07-23T00:45:09;91972.09;;;22.08
71807;BMP280;59655;42.590;23.364;2022-07-23T00:47:34;91973.00;;;22.12
71807;BMP280;59655;42.590;23.364;2022-07-23T00:50:00;91971.28;;;22.19
71807;BMP280;59655;42.590;23.364;2022-07-23T00:52:25;91969.81;;;22.16
71807;BMP280;59655;42.590;23.364;2022-07-23T00:54:51;91972.63;;;22.18
71807;BMP280;59655;42.590;23.364;2022-07-23T00:57:16;91971.50;;;22.09
71807;BMP280;59655;42.590;23.364;2022-07-23T00:59:43;91972.81;;;22.08
71807;BMP280;59655;42.590;23.364;2022-07-23T01:02:08;91971.41;;;22.07
71807;BMP280;59655;42.590;23.364;2022-07-23T01:04:33;91971.31;;;22.05
71807;BMP280;59655;42.590;23.364;2022-07-23T01:06:59;91966.59;;;22.06
71807;BMP280;59655;42.590;23.364;2022-07-23T01:09:25;91969.19;;;22.04
71807;BMP280;59655;42.590;23.364;2022-07-23T01:11:51;91966.91;;;21.98
71807;BMP280;59655;42.590;23.364;2022-07-23T01:14:18;91971.63;;;21.97
71807;BMP280;59655;42.590;23.364;2022-07-23T01:16:46;91970.00;;;21.92
71807;BMP280;59655;42.590;23.364;2022-07-23T01:19:12;91965.22;;;21.91
71807;BMP280;59655;42.590;23.364;2022-07-23T01:21:40;91967.44;;;21.94
71807;BMP280;59655;42.590;23.364;2022-07-23T01:24:07;91956.63;;;21.94
71807;BMP280;59655;42.590;23.364;2022-07-23T01:26:34;91954.72;;;21.83
71807;BMP280;59655;42.590;23.364;2022-07-23T01:28:59;91954.09;;;21.71
71807;BMP280;59655;42.590;23.364;2022-07-23T01:31:26;91959.03;;;21.74
71807;BMP280;59655;42.590;23.364;2022-07-23T01:33:51;91960.31;;;21.73
71807;BMP280;59655;42.590;23.364;2022-07-23T01:36:17;91954.09;;;21.57
71807;BMP280;59655;42.590;23.364;2022-07-23T01:38:42;91950.53;;;21.66
71807;BMP280;59655;42.590;23.364;2022-07-23T01:41:07;91955.22;;;21.66
71807;BMP280;59655;42.590;23.364;2022-07-23T01:43:33;91949.19;;;21.67
71807;BMP280;59655;42.590;23.364;2022-07-23T01:45:58;91953.63;;;21.74
71807;BMP280;59655;42.590;23.364;2022-07-23T01:48:23;91948.28;;;21.77
71807;BMP280;59655;42.590;23.364;2022-07-23T01:50:50;91948.22;;;21.74
71807;BMP280;59655;42.590;23.364;2022-07-23T01:53:16;91949.53;;;21.73
71807;BMP280;59655;42.590;23.364;2022-07-23T01:55:42;91949.09;;;21.65
71807;BMP280;59655;42.590;23.364;2022-07-23T01:58:07;91944.41;;;21.66
71807;BMP280;59655;42.590;23.364;2022-07-23T02:00:33;91946.81;;;21.73
71807;BMP280;59655;42.590;23.364;2022-07-23T02:02:59;91953.31;;;21.68
71807;BMP280;59655;42.590;23.364;2022-07-23T02:05:28;91956.00;;;21.68
71807;BMP280;59655;42.590;23.364;2022-07-23T02:07:57;91949.91;;;21.68
71807;BMP280;59655;42.590;23.364;2022-07-23T02:10:23;91950.41;;;21.64
71807;BMP280;59655;42.590;23.364;2022-07-23T02:12:48;91957.59;;;21.60
71807;BMP280;59655;42.590;23.364;2022-07-23T02:15:13;91954.88;;;21.60
71807;BMP280;59655;42.590;23.364;2022-07-23T02:17:39;91952.19;;;21.60
71807;BMP280;59655;42.590;23.364;2022-07-23T02:20:06;91956.88;;;21.59
71807;BMP280;59655;42.590;23.364;2022-07-23T02:22:32;91960.09;;;21.56
71807;BMP280;59655;42.590;23.364;2022-07-23T02:24:58;91955.91;;;21.53
71807;BMP280;59655;42.590;23.364;2022-07-23T02:27:23;91954.09;;;21.57
71807;BMP280;59655;42.590;23.364;2022-07-23T02:29:49;91957.38;;;21.56
71807;BMP280;59655;42.590;23.364;2022-07-23T02:32:15;91957.00;;;21.61
71807;BMP280;59655;42.590;23.364;2022-07-23T02:34:40;91954.09;;;21.57
71807;BMP280;59655;42.590;23.364;2022-07-23T02:37:06;91954.69;;;21.56
71807;BMP280;59655;42.590;23.364;2022-07-23T02:39:34;91959.09;;;21.49
71807;BMP280;59655;42.590;23.364;2022-07-23T02:41:59;91954.69;;;21.42
71807;BMP280;59655;42.590;23.364;2022-07-23T02:44:25;91961.47;;;21.43
71807;BMP280;59655;42.590;23.364;2022-07-23T02:46:50;91962.88;;;21.44
71807;BMP280;59655;42.590;23.364;2022-07-23T02:49:15;91960.09;;;21.42
71807;BMP280;59655;42.590;23.364;2022-07-23T02:51:41;91968.78;;;21.40
71807;BMP280;59655;42.590;23.364;2022-07-23T02:54:07;91976.28;;;21.42
71807;BMP280;59655;42.590;23.364;2022-07-23T02:56:32;91969.06;;;21.33
71807;BMP280;59655;42.590;23.364;2022-07-23T02:58:58;91968.84;;;21.29
71807;BMP280;59655;42.590;23.364;2022-07-23T03:01:23;91967.59;;;21.30
71807;BMP280;59655;42.590;23.364;2022-07-23T03:03:48;91974.34;;;21.31
71807;BMP280;59655;42.590;23.364;2022-07-23T03:06:14;91971.66;;;21.31
71807;BMP280;59655;42.590;23.364;2022-07-23T03:08:39;91974.47;;;21.33
71807;BMP280;59655;42.590;23.364;2022-07-23T03:11:05;91980.06;;;21.37
71807;BMP280;59655;42.590;23.364;2022-07-23T03:13:39;91977.25;;;21.35
71807;BMP280;59655;42.590;23.364;2022-07-23T03:16:05;91978.78;;;21.38
71807;BMP280;59655;42.590;23.364;2022-07-23T03:18:30;91983.59;;;21.39
71807;BMP280;59655;42.590;23.364;2022-07-23T03:20:56;91980.06;;;21.37
71807;BMP280;59655;42.590;23.364;2022-07-23T03:23:22;91982.56;;;21.33
71807;BMP280;59655;42.590;23.364;2022-07-23T03:25:47;91977.81;;;21.45
71807;BMP280;59655;42.590;23.364;2022-07-23T03:28:17;91981.38;;;21.36
71807;BMP280;59655;42.590;23.364;2022-07-23T03:30:43;91980.38;;;21.29
71807;BMP280;59655;42.590;23.364;2022-07-23T03:33:14;91977.97;;;21.35
71807;BMP280;59655;42.590;23.364;2022-07-23T03:35:42;91979.88;;;21.33
71807;BMP280;59655;42.590;23.364;2022-07-23T03:38:07;91975.41;;;21.37
71807;BMP280;59655;42.590;23.364;2022-07-23T03:40:32;91981.59;;;21.40
71807;BMP280;59655;42.590;23.364;2022-07-23T03:42:58;91980.50;;;21.45
71807;BMP280;59655;42.590;23.364;2022-07-23T03:45:23;91972.81;;;21.53
71807;BMP280;59655;42.590;23.364;2022-07-23T03:47:48;91986.81;;;21.49
71807;BMP280;59655;42.590;23.364;2022-07-23T03:50:14;91985.91;;;21.59
71807;BMP280;59655;42.590;23.364;2022-07-23T03:52:40;91982.75;;;21.62
71807;BMP280;59655;42.590;23.364;2022-07-23T03:55:06;91989.00;;;21.67
71807;BMP280;59655;42.590;23.364;2022-07-23T03:57:31;91977.53;;;21.66
71807;BMP280;59655;42.590;23.364;2022-07-23T03:59:57;91987.13;;;21.69
71807;BMP280;59655;42.590;23.364;2022-07-23T04:02:22;91977.94;;;21.74
71807;BMP280;59655;42.590;23.364;2022-07-23T04:04:48;91980.72;;;21.77
71807;BMP280;59655;42.590;23.364;2022-07-23T04:07:15;91983.50;;;21.79
71807;BMP280;59655;42.590;23.364;2022-07-23T04:09:42;91980.72;;;21.77
71807;BMP280;59655;42.590;23.364;2022-07-23T04:12:08;91983.13;;;21.70
71807;BMP280;59655;42.590;23.364;2022-07-23T04:14:33;91989.53;;;21.77
71807;BMP280;59655;42.590;23.364;2022-07-23T04:16:59;91978.09;;;21.79
71807;BMP280;59655;42.590;23.364;2022-07-23T04:19:25;91978.72;;;21.77
71807;BMP280;59655;42.590;23.364;2022-07-23T04:21:50;91978.22;;;21.81
71807;BMP280;59655;42.590;23.364;2022-07-23T04:24:16;91982.34;;;21.82
71807;BMP280;59655;42.590;23.364;2022-07-23T04:26:43;91983.94;;;21.87
71807;BMP280;59655;42.590;23.364;2022-07-23T04:29:09;91985.53;;;21.92
71807;BMP280;59655;42.590;23.364;2022-07-23T04:31:34;91981.53;;;21.93
71807;BMP280;59655;42.590;23.364;2022-07-23T04:33:59;91983.84;;;21.98
71807;BMP280;59655;42.590;23.364;2022-07-23T04:36:25;91990.13;;;22.03
71807;BMP280;59655;42.590;23.364;2022-07-23T04:38:50;91986.44;;;22.10
71807;BMP280;59655;42.590;23.364;2022-07-23T04:41:16;91991.25;;;22.12
71807;BMP280;59655;42.590;23.364;2022-07-23T04:43:41;91988.00;;;22.15
71807;BMP280;59655;42.590;23.364;2022-07-23T04:46:06;91986.91;;;22.20
71807;BMP280;59655;42.590;23.364;2022-07-23T04:48:32;91996.44;;;22.21
71807;BMP280;59655;42.590;23.364;2022-07-23T04:50:57;91994.13;;;22.30
71807;BMP280;59655;42.590;23.364;2022-07-23T04:53:23;92002.94;;;22.30
71807;BMP280;59655;42.590;23.364;2022-07-23T04:55:48;91998.13;;;22.29
71807;BMP280;59655;42.590;23.364;2022-07-23T04:58:14;91998.94;;;22.31
71807;BMP280;59655;42.590;23.364;2022-07-23T05:00:40;91996.72;;;22.28
71807;BMP280;59655;42.590;23.364;2022-07-23T05:03:05;91999.63;;;22.32
71807;BMP280;59655;42.590;23.364;2022-07-23T05:05:30;92005.34;;;22.38
71807;BMP280;59655;42.590;23.364;2022-07-23T05:07:56;92000.00;;;22.40
71807;BMP280;59655;42.590;23.364;2022-07-23T05:10:21;92007.63;;;22.43
71807;BMP280;59655;42.590;23.364;2022-07-23T05:12:47;92006.91;;;22.43
71807;BMP280;59655;42.590;23.364;2022-07-23T05:15:12;92002.19;;;22.43
71807;BMP280;59655;42.590;23.364;2022-07-23T05:17:38;92009.81;;;22.47
71807;BMP280;59655;42.590;23.364;2022-07-23T05:20:03;92008.50;;;22.48
71807;BMP280;59655;42.590;23.364;2022-07-23T05:22:29;92011.19;;;22.48
71807;BMP280;59655;42.590;23.364;2022-07-23T05:24:54;92009.50;;;22.55
71807;BMP280;59655;42.590;23.364;2022-07-23T05:27:20;92016.19;;;22.54
71807;BMP280;59655;42.590;23.364;2022-07-23T05:29:45;92015.09;;;22.59
71807;BMP280;59655;42.590;23.364;2022-07-23T05:32:11;92022.63;;;22.60
71807;BMP280;59655;42.590;23.364;2022-07-23T05:34:36;92022.00;;;22.62
71807;BMP280;59655;42.590;23.364;2022-07-23T05:37:01;92026.72;;;22.61
71807;BMP280;59655;42.590;23.364;2022-07-23T05:39:27;92026.81;;;22.63
71807;BMP280;59655;42.590;23.364;2022-07-23T05:41:52;92027.59;;;22.66
71807;BMP280;59655;42.590;23.364;2022-07-23T05:44:18;92029.81;;;22.69
71807;BMP280;59655;42.590;23.364;2022-07-23T05:46:43;92023.84;;;22.73
71807;BMP280;59655;42.590;23.364;2022-07-23T05:49:08;92027.38;;;22.76
71807;BMP280;59655;42.590;23.364;2022-07-23T05:51:34;92022.56;;;22.74
71807;BMP280;59655;42.590;23.364;2022-07-23T05:54:00;92030.19;;;22.78
71807;BMP280;59655;42.590;23.364;2022-07-23T05:56:25;92026.97;;;22.81
71807;BMP280;59655;42.590;23.364;2022-07-23T05:58:50;92031.88;;;22.85
71807;BMP280;59655;42.590;23.364;2022-07-23T06:01:16;92032.06;;;22.89
71807;BMP280;59655;42.590;23.364;2022-07-23T06:03:41;92034.94;;;22.93
71807;BMP280;59655;42.590;23.364;2022-07-23T06:06:07;92039.78;;;22.94
71807;BMP280;59655;42.590;23.364;2022-07-23T06:08:33;92035.13;;;22.97
71807;BMP280;59655;42.590;23.364;2022-07-23T06:10:59;92029.91;;;23.01
71807;BMP280;59655;42.590;23.364;2022-07-23T06:13:24;92025.97;;;23.04
71807;BMP280;59655;42.590;23.364;2022-07-23T06:15:49;92027.47;;;23.07
71807;BMP280;59655;42.590;23.364;2022-07-23T06:18:15;92031.75;;;23.12
71807;BMP280;59655;42.590;23.364;2022-07-23T06:20:41;92033.97;;;23.16
71807;BMP280;59655;42.590;23.364;2022-07-23T06:23:06;92028.13;;;23.21
71807;BMP280;59655;42.590;23.364;2022-07-23T06:25:31;92033.72;;;23.26
71807;BMP280;59655;42.590;23.364;2022-07-23T06:27:57;92028.47;;;23.30
71807;BMP280;59655;42.590;23.364;2022-07-23T06:30:22;92029.34;;;23.34
71807;BMP280;59655;42.590;23.364;2022-07-23T06:32:48;92030.16;;;23.37
71807;BMP280;59655;42.590;23.364;2022-07-23T06:35:14;92031.69;;;23.42
71807;BMP280;59655;42.590;23.364;2022-07-23T06:37:40;92031.97;;;23.48
71807;BMP280;59655;42.590;23.364;2022-07-23T06:40:05;92026.13;;;23.54
71807;BMP280;59655;42.590;23.364;2022-07-23T06:42:31;92026.03;;;23.52
71807;BMP280;59655;42.590;23.364;2022-07-23T06:44:56;92032.25;;;23.54
71807;BMP280;59655;42.590;23.364;2022-07-23T06:47:22;92035.06;;;23.56
71807;BMP280;59655;42.590;23.364;2022-07-23T06:49:47;92034.53;;;23.60
71807;BMP280;59655;42.590;23.364;2022-07-23T06:52:13;92033.91;;;23.61
71807;BMP280;59655;42.590;23.364;2022-07-23T06:54:38;92032.69;;;23.64
71807;BMP280;59655;42.590;23.364;2022-07-23T06:57:04;92033.47;;;23.67
71807;BMP280;59655;42.590;23.364;2022-07-23T06:59:29;92031.63;;;23.71
71807;BMP280;59655;42.590;23.364;2022-07-23T07:01:55;92029.63;;;23.72
71807;BMP280;59655;42.590;23.364;2022-07-23T07:04:20;92023.59;;;23.74
71807;BMP280;59655;42.590;23.364;2022-07-23T07:06:45;92035.22;;;23.76
71807;BMP280;59655;42.590;23.364;2022-07-23T07:09:11;92033.91;;;23.77
71807;BMP280;59655;42.590;23.364;2022-07-23T07:11:36;92028.06;;;23.83
71807;BMP280;59655;42.590;23.364;2022-07-23T07:14:02;92030.75;;;23.83
71807;BMP280;59655;42.590;23.364;2022-07-23T07:16:29;92025.50;;;23.87
71807;BMP280;59655;42.590;23.364;2022-07-23T07:18:54;92029.00;;;23.89
71807;BMP280;59655;42.590;23.364;2022-07-23T07:21:20;92024.25;;;23.90
71807;BMP280;59655;42.590;23.364;2022-07-23T07:23:45;92031.09;;;23.91
71807;BMP280;59655;42.590;23.364;2022-07-23T07:26:10;92027.06;;;23.92
71807;BMP280;59655;42.590;23.364;2022-07-23T07:28:36;92025.09;;;23.92
71807;BMP280;59655;42.590;23.364;2022-07-23T07:31:01;92025.91;;;23.97
71807;BMP280;59655;42.590;23.364;2022-07-23T07:33:27;92021.28;;;24.00
71807;BMP280;59655;42.590;23.364;2022-07-23T07:35:52;92024.00;;;24.00
71807;BMP280;59655;42.590;23.364;2022-07-23T07:38:18;92017.94;;;24.01
71807;BMP280;59655;42.590;23.364;2022-07-23T07:40:44;92021.44;;;24.04
71807;BMP280;59655;42.590;23.364;2022-07-23T07:43:09;92014.13;;;24.06
71807;BMP280;59655;42.590;23.364;2022-07-23T07:45:34;92017.69;;;24.11
71807;BMP280;59655;42.590;23.364;2022-07-23T07:48:00;92017.06;;;24.12
71807;BMP280;59655;42.590;23.364;2022-07-23T07:50:25;92022.47;;;24.12
71807;BMP280;59655;42.590;23.364;2022-07-23T07:52:51;92022.59;;;24.14
71807;BMP280;59655;42.590;23.364;2022-07-23T07:55:17;92019.25;;;24.16
71807;BMP280;59655;42.590;23.364;2022-07-23T07:57:42;92026.78;;;24.17
71807;BMP280;59655;42.590;23.364;2022-07-23T08:00:09;92023.50;;;24.21
71807;BMP280;59655;42.590;23.364;2022-07-23T08:05:07;92023.06;;;24.27
71807;BMP280;59655;42.590;23.364;2022-07-23T08:07:32;92020.50;;;24.31
71807;BMP280;59655;42.590;23.364;2022-07-23T08:09:57;92019.81;;;24.30
71807;BMP280;59655;42.590;23.364;2022-07-23T08:12:23;92018.56;;;24.33
71807;BMP280;59655;42.590;23.364;2022-07-23T08:14:48;92014.53;;;24.34
71807;BMP280;59655;42.590;23.364;2022-07-23T08:17:13;92016.66;;;24.36
71807;BMP280;59655;42.590;23.364;2022-07-23T08:19:39;92011.22;;;24.36
71807;BMP280;59655;42.590;23.364;2022-07-23T08:22:04;92013.25;;;24.35
71807;BMP280;59655;42.590;23.364;2022-07-23T08:24:30;92014.00;;;24.38
71807;BMP280;59655;42.590;23.364;2022-07-23T08:26:55;92019.44;;;24.38
71807;BMP280;59655;42.590;23.364;2022-07-23T08:29:21;92021.72;;;24.43
71807;BMP280;59655;42.590;23.364;2022-07-23T08:31:46;92017.13;;;24.48
71807;BMP280;59655;42.590;23.364;2022-07-23T08:34:11;92021.34;;;24.51
71807;BMP280;59655;42.590;23.364;2022-07-23T08:36:37;92020.63;;;24.51
71807;BMP280;59655;42.590;23.364;2022-07-23T08:39:02;92017.94;;;24.51
71807;BMP280;59655;42.590;23.364;2022-07-23T08:41:28;92023.41;;;24.53
71807;BMP280;59655;42.590;23.364;2022-07-23T08:43:54;92020.16;;;24.56
71807;BMP280;59655;42.590;23.364;2022-07-23T08:46:20;92015.66;;;24.63
71807;BMP280;59655;42.590;23.364;2022-07-23T08:48:48;92016.28;;;24.61
71807;BMP280;59655;42.590;23.364;2022-07-23T08:51:14;92016.28;;;24.61
71807;BMP280;59655;42.590;23.364;2022-07-23T08:53:40;92011.81;;;24.68
71807;BMP280;59655;42.590;23.364;2022-07-23T08:56:07;92013.88;;;24.69
71807;BMP280;59655;42.590;23.364;2022-07-23T08:58:32;92014.59;;;24.70
71807;BMP280;59655;42.590;23.364;2022-07-23T09:00:59;92014.13;;;24.76
71807;BMP280;59655;42.590;23.364;2022-07-23T09:03:42;92015.78;;;24.83
71807;BMP280;59655;42.590;23.364;2022-07-23T09:06:10;92014.41;;;24.84
71807;BMP280;59655;42.590;23.364;2022-07-23T09:08:37;92013.97;;;24.89
71807;BMP280;59655;42.590;23.364;2022-07-23T09:11:05;92009.16;;;24.88
71807;BMP280;59655;42.590;23.364;2022-07-23T09:16:00;92016.16;;;24.93
71807;BMP280;59655;42.590;23.364;2022-07-23T09:18:38;92018.78;;;24.91
71807;BMP280;59655;42.590;23.364;2022-07-23T09:23:54;92013.50;;;24.95
71807;BMP280;59655;42.590;23.364;2022-07-23T09:31:42;92010.44;;;25.05
71807;BMP280;59655;42.590;23.364;2022-07-23T09:34:24;92014.59;;;25.06
71807;BMP280;59655;42.590;23.364;2022-07-23T09:37:08;92013.31;;;25.09
71807;BMP280;59655;42.590;23.364;2022-07-23T09:39:34;92014.88;;;25.14
71807;BMP280;59655;42.590;23.364;2022-07-23T09:44:43;92009.59;;;25.18
71807;BMP280;59655;42.590;23.364;2022-07-23T09:47:08;92004.91;;;25.20
71807;BMP280;59655;42.590;23.364;2022-07-23T09:49:34;91996.75;;;25.20
71807;BMP280;59655;42.590;23.364;2022-07-23T09:52:00;92005.69;;;25.23
71807;BMP280;59655;42.590;23.364;2022-07-23T09:54:30;92001.81;;;25.28
71807;BMP280;59655;42.590;23.364;2022-07-23T09:56:59;92005.31;;;25.31
71807;BMP280;59655;42.590;23.364;2022-07-23T09:59:30;92000.06;;;25.37
71807;BMP280;59655;42.590;23.364;2022-07-23T10:01:57;91996.63;;;25.36
71807;BMP280;59655;42.590;23.364;2022-07-23T10:04:25;91990.03;;;25.41
71807;BMP280;59655;42.590;23.364;2022-07-23T10:06:54;91990.97;;;25.48
71807;BMP280;59655;42.590;23.364;2022-07-23T10:09:26;91994.50;;;25.53
71807;BMP280;59655;42.590;23.364;2022-07-23T10:11:53;91987.13;;;25.55
71807;BMP280;59655;42.590;23.364;2022-07-23T10:14:21;91983.22;;;25.60
71807;BMP280;59655;42.590;23.364;2022-07-23T10:16:47;91982.03;;;25.65
71807;BMP280;59655;42.590;23.364;2022-07-23T10:19:13;91986.13;;;25.66
71807;BMP280;59655;42.590;23.364;2022-07-23T10:21:54;91983.50;;;25.68
71807;BMP280;59655;42.590;23.364;2022-07-23T10:29:47;91975.03;;;25.80
71807;BMP280;59655;42.590;23.364;2022-07-23T10:40:15;91968.38;;;26.05
71807;BMP280;59655;42.590;23.364;2022-07-23T10:42:43;91968.59;;;26.11
71807;BMP280;59655;42.590;23.364;2022-07-23T10:45:28;91965.31;;;26.17
71807;BMP280;59655;42.590;23.364;2022-07-23T10:47:54;91970.16;;;26.18
71807;BMP280;59655;42.590;23.364;2022-07-23T10:53:17;91957.50;;;26.49
71807;BMP280;59655;42.590;23.364;2022-07-23T10:55:45;91959.28;;;26.40
71807;BMP280;59655;42.590;23.364;2022-07-23T10:58:21;91946.34;;;26.41
71807;BMP280;59655;42.590;23.364;2022-07-23T11:00:47;91954.81;;;26.51
71807;BMP280;59655;42.590;23.364;2022-07-23T11:03:42;91952.34;;;26.59
71807;BMP280;59655;42.590;23.364;2022-07-23T11:06:20;91940.13;;;26.60
71807;BMP280;59655;42.590;23.364;2022-07-23T11:08:45;91946.34;;;26.63
71807;BMP280;59655;42.590;23.364;2022-07-23T11:11:11;91948.78;;;27.01
71807;BMP280;59655;42.590;23.364;2022-07-23T11:13:38;91939.03;;;26.93
71807;BMP280;59655;42.590;23.364;2022-07-23T11:16:05;91942.31;;;27.14
71807;BMP280;59655;42.590;23.364;2022-07-23T11:24:09;91932.63;;;27.33
71807;BMP280;59655;42.590;23.364;2022-07-23T11:31:56;91917.13;;;27.41
71807;BMP280;59655;42.590;23.364;2022-07-23T11:36:56;91919.28;;;27.45
71807;BMP280;59655;42.590;23.364;2022-07-23T11:39:24;91924.00;;;27.42
71807;BMP280;59655;42.590;23.364;2022-07-23T11:41:51;91916.78;;;28.09
71807;BMP280;59655;42.590;23.364;2022-07-23T11:46:59;91921.84;;;27.93
71807;BMP280;59655;42.590;23.364;2022-07-23T11:49:26;91912.13;;;28.16
71807;BMP280;59655;42.590;23.364;2022-07-23T11:52:10;91905.34;;;27.89
71807;BMP280;59655;42.590;23.364;2022-07-23T11:54:58;91908.59;;;27.81
71807;BMP280;59655;42.590;23.364;2022-07-23T11:57:27;91901.81;;;27.82
71807;BMP280;59655;42.590;23.364;2022-07-23T12:00:05;91898.41;;;27.84
71807;BMP280;59655;42.590;23.364;2022-07-23T12:02:33;91906.75;;;27.90
71807;BMP280;59655;42.590;23.364;2022-07-23T12:04:59;91904.19;;;27.96
71807;BMP280;59655;42.590;23.364;2022-07-23T12:07:41;91901.53;;;28.00
71807;BMP280;59655;42.590;23.364;2022-07-23T12:12:41;91903.69;;;28.04
71807;BMP280;59655;42.590;23.364;2022-07-23T12:15:07;91896.94;;;28.09
71807;BMP280;59655;42.590;23.364;2022-07-23T12:17:35;91890.25;;;28.14
71807;BMP280;59655;42.590;23.364;2022-07-23T12:20:04;91888.34;;;28.20
71807;BMP280;59655;42.590;23.364;2022-07-23T12:22:37;91894.06;;;28.33
71807;BMP280;59655;42.590;23.364;2022-07-23T12:25:06;91887.75;;;28.56
71807;BMP280;59655;42.590;23.364;2022-07-23T12:27:33;91879.06;;;28.66
71807;BMP280;59655;42.590;23.364;2022-07-23T12:29:59;91876.72;;;28.84
71807;BMP280;59655;42.590;23.364;2022-07-23T12:32:27;91885.13;;;28.96
71807;BMP280;59655;42.590;23.364;2022-07-23T12:35:05;91882.19;;;29.22
71807;BMP280;59655;42.590;23.364;2022-07-23T12:37:42;91880.56;;;29.47
71807;BMP280;59655;42.590;23.364;2022-07-23T12:40:29;91876.28;;;29.76
71807;BMP280;59655;42.590;23.364;2022-07-23T12:43:04;91883.91;;;30.32
71807;BMP280;59655;42.590;23.364;2022-07-23T12:45:50;91871.06;;;30.45
71807;BMP280;59655;42.590;23.364;2022-07-23T12:48:30;91873.41;;;31.36
71807;BMP280;59655;42.590;23.364;2022-07-23T12:51:01;91871.19;;;32.09
71807;BMP280;59655;42.590;23.364;2022-07-23T12:53:28;91866.66;;;32.71
71807;BMP280;59655;42.590;23.364;2022-07-23T12:56:17;91869.56;;;33.20
71807;BMP280;59655;42.590;23.364;2022-07-23T12:58:55;91866.81;;;33.58
71807;BMP280;59655;42.590;23.364;2022-07-23T13:04:00;91870.84;;;34.29
71807;BMP280;59655;42.590;23.364;2022-07-23T13:06:28;91868.66;;;34.47
71807;BMP280;59655;42.590;23.364;2022-07-23T13:08:54;91859.56;;;34.80
71807;BMP280;59655;42.590;23.364;2022-07-23T13:11:19;91859.53;;;34.86
71807;BMP280;59655;42.590;23.364;2022-07-23T13:13:45;91863.06;;;35.68
71807;BMP280;59655;42.590;23.364;2022-07-23T13:16:10;91859.09;;;35.49
71807;BMP280;59655;42.590;23.364;2022-07-23T13:18:36;91858.13;;;35.81
71807;BMP280;59655;42.590;23.364;2022-07-23T13:21:01;91857.22;;;36.01
71807;BMP280;59655;42.590;23.364;2022-07-23T13:23:27;91862.50;;;36.23
71807;BMP280;59655;42.590;23.364;2022-07-23T13:25:53;91855.59;;;36.24
71807;BMP280;59655;42.590;23.364;2022-07-23T13:28:20;91858.63;;;36.57
71807;BMP280;59655;42.590;23.364;2022-07-23T13:30:47;91858.38;;;36.75
71807;BMP280;59655;42.590;23.364;2022-07-23T13:33:15;91855.31;;;36.98
71807;BMP280;59655;42.590;23.364;2022-07-23T13:35:40;91860.16;;;36.97
71807;BMP280;59655;42.590;23.364;2022-07-23T13:38:06;91861.47;;;37.02
71807;BMP280;59655;42.590;23.364;2022-07-23T13:40:39;91852.63;;;36.92
71807;BMP280;59655;42.590;23.364;2022-07-23T13:43:14;91853.41;;;37.33
71807;BMP280;59655;42.590;23.364;2022-07-23T13:45:40;91853.97;;;37.40
71807;BMP280;59655;42.590;23.364;2022-07-23T13:48:08;91854.53;;;37.49
71807;BMP280;59655;42.590;23.364;2022-07-23T13:50:34;91860.59;;;37.16
71807;BMP280;59655;42.590;23.364;2022-07-23T13:53:07;91846.03;;;37.59
71807;BMP280;59655;42.590;23.364;2022-07-23T13:55:33;91851.94;;;37.78
71807;BMP280;59655;42.590;23.364;2022-07-23T13:57:59;91846.44;;;37.76
71807;BMP280;59655;42.590;23.364;2022-07-23T14:00:26;91852.47;;;37.86
71807;BMP280;59655;42.590;23.364;2022-07-23T14:02:52;91848.41;;;37.81
71807;BMP280;59655;42.590;23.364;2022-07-23T14:05:17;91842.88;;;37.81
71807;BMP280;59655;42.590;23.364;2022-07-23T14:07:43;91845.78;;;37.73
71807;BMP280;59655;42.590;23.364;2022-07-23T14:10:09;91842.63;;;37.93
71807;BMP280;59655;42.590;23.364;2022-07-23T14:12:35;91841.78;;;38.01
71807;BMP280;59655;42.590;23.364;2022-07-23T14:15:01;91839.75;;;38.00
71807;BMP280;59655;42.590;23.364;2022-07-23T14:17:26;91843.78;;;38.07
71807;BMP280;59655;42.590;23.364;2022-07-23T14:19:52;91847.31;;;38.01
71807;BMP280;59655;42.590;23.364;2022-07-23T14:22:17;91845.31;;;37.98
71807;BMP280;59655;42.590;23.364;2022-07-23T14:24:43;91844.50;;;38.05
71807;BMP280;59655;42.590;23.364;2022-07-23T14:27:08;91842.63;;;37.93
71807;BMP280;59655;42.590;23.364;2022-07-23T14:29:35;91849.50;;;37.97
71807;BMP280;59655;42.590;23.364;2022-07-23T14:32:01;91844.59;;;37.99
71807;BMP280;59655;42.590;23.364;2022-07-23T14:34:26;91839.78;;;37.98
71807;BMP280;59655;42.590;23.364;2022-07-23T14:36:52;91842.00;;;37.91
71807;BMP280;59655;42.590;23.364;2022-07-23T14:39:18;91837.91;;;37.86
71807;BMP280;59655;42.590;23.364;2022-07-23T14:41:44;91831.78;;;37.81
71807;BMP280;59655;42.590;23.364;2022-07-23T14:44:09;91829.00;;;37.81
71807;BMP280;59655;42.590;23.364;2022-07-23T14:46:35;91823.41;;;37.83
71807;BMP280;59655;42.590;23.364;2022-07-23T14:49:01;91829.81;;;37.76